Time;durP1;ratioP1;P1;durP2;ratioP2;P2;SDS_P1;SDS_P2;PMS_P1;PMS_P2;Temp;Humidity;BMP_temperature;BMP_pressure;BME280_temperature;BME280_humidity;BME280_pressure;Samples;Min_cycle;Max_cycle;Signal;HPM_P1;HPM_P2
2022/11/20 00:00:47;;;;;;;11.02;7.90;;;;;;;;;;5046220;28;20041;-72
2022/11/20 00:03:14;;;;;;;10.82;8.23;;;;;;;;;;5031026;28;20044;-72
2022/11/20 00:05:40;;;;;;;10.18;8.05;;;;;;;;;;5031035;28;20079;-73
2022/11/20 00:08:06;;;;;;;10.65;7.68;;;;;;;;;;5046214;28;20090;-75
2022/11/20 00:10:32;;;;;;;10.75;7.93;;;;;;;;;;5049249;28;20522;-74
2022/11/20 00:12:58;;;;;;;10.23;7.97;;;;;;;;;;5045168;28;21144;-74
2022/11/20 00:15:24;;;;;;;11.40;7.90;;;;;;;;;;5026336;28;20491;-73
2022/11/20 00:17:51;;;;;;;10.13;7.65;;;;;;;;;;5048089;28;20397;-74
2022/11/20 00:20:17;;;;;;;11.45;8.10;;;;;;;;;;5066699;28;20044;-75
2022/11/20 00:22:43;;;;;;;10.45;7.30;;;;;;;;;;5029220;28;20044;-75
2022/11/20 00:25:11;;;;;;;11.57;7.93;;;;;;;;;;5032953;28;20389;-73
2022/11/20 00:27:38;;;;;;;10.50;7.80;;;;;;;;;;5033124;28;20080;-74
2022/11/20 00:30:04;;;;;;;9.95;7.43;;;;;;;;;;5029281;28;20087;-73
2022/11/20 00:32:33;;;;;;;9.57;7.47;;;;;;;;;;5055295;28;20041;-74
2022/11/20 00:34:59;;;;;;;10.68;7.85;;;;;;;;;;5022986;28;20123;-74
2022/11/20 00:37:26;;;;;;;10.60;7.53;;;;;;;;;;5044055;28;20052;-75
2022/11/20 00:39:52;;;;;;;10.10;7.57;;;;;;;;;;5047171;28;20048;-75
2022/11/20 00:42:18;;;;;;;9.45;7.35;;;;;;;;;;5029881;28;20389;-75
2022/11/20 00:44:44;;;;;;;9.98;7.50;;;;;;;;;;5044987;28;20454;-75
2022/11/20 00:47:10;;;;;;;11.10;7.38;;;;;;;;;;5026662;28;20549;-74
2022/11/20 00:49:36;;;;;;;11.45;8.25;;;;;;;;;;5065606;28;20052;-74
2022/11/20 00:52:02;;;;;;;10.93;8.35;;;;;;;;;;5046124;28;20033;-74
2022/11/20 00:54:28;;;;;;;10.30;7.82;;;;;;;;;;5027200;28;20123;-74
2022/11/20 00:56:54;;;;;;;9.95;7.70;;;;;;;;;;5053140;28;20449;-74
2022/11/20 00:59:20;;;;;;;9.95;7.45;;;;;;;;;;5051822;28;20167;-73
2022/11/20 01:01:46;;;;;;;10.65;7.82;;;;;;;;;;5030470;28;20157;-74
2022/11/20 01:04:12;;;;;;;10.98;7.57;;;;;;;;;;5039349;28;20052;-74
2022/11/20 01:06:39;;;;;;;11.75;8.68;;;;;;;;;;5047122;28;20045;-74
2022/11/20 01:09:07;;;;;;;11.25;8.40;;;;;;;;;;5050067;28;20408;-74
2022/11/20 01:11:35;;;;;;;11.02;8.10;;;;;;;;;;5032162;28;20052;-74
2022/11/20 01:14:01;;;;;;;10.75;7.97;;;;;;;;;;5028509;28;20047;-74
2022/11/20 01:16:30;;;;;;;12.68;8.23;;;;;;;;;;5027297;28;20078;-74
2022/11/20 01:18:57;;;;;;;9.65;7.60;;;;;;;;;;5027250;28;20049;-74
2022/11/20 01:21:24;;;;;;;11.25;7.85;;;;;;;;;;5046360;28;20071;-74
2022/11/20 01:23:54;;;;;;;10.88;8.20;;;;;;;;;;5030083;28;20454;-74
2022/11/20 01:26:24;;;;;;;12.95;7.85;;;;;;;;;;5062763;28;20055;-74
2022/11/20 01:28:50;;;;;;;11.02;8.13;;;;;;;;;;5054858;28;20037;-75
2022/11/20 01:31:18;;;;;;;11.98;8.40;;;;;;;;;;5049686;28;20052;-74
2022/11/20 01:33:44;;;;;;;10.40;7.75;;;;;;;;;;5034809;28;20049;-74
2022/11/20 01:36:11;;;;;;;13.13;8.18;;;;;;;;;;5047317;28;20057;-74
2022/11/20 01:38:37;;;;;;;11.93;8.20;;;;;;;;;;5046250;28;20052;-74
2022/11/20 01:41:03;;;;;;;11.00;7.97;;;;;;;;;;5058077;28;20055;-74
2022/11/20 01:43:29;;;;;;;10.20;7.70;;;;;;;;;;5052533;28;20169;-74
2022/11/20 01:45:55;;;;;;;10.10;7.63;;;;;;;;;;5039931;28;20041;-74
2022/11/20 01:48:22;;;;;;;11.27;8.30;;;;;;;;;;5043092;28;20053;-74
2022/11/20 01:50:48;;;;;;;10.90;8.18;;;;;;;;;;5025726;28;20041;-74
2022/11/20 01:53:16;;;;;;;11.88;8.05;;;;;;;;;;5059583;28;20037;-74
2022/11/20 01:55:48;;;;;;;10.13;8.23;;;;;;;;;;5040837;28;20048;-74
2022/11/20 01:58:14;;;;;;;12.27;8.15;;;;;;;;;;5025944;28;20143;-75
2022/11/20 02:00:41;;;;;;;11.55;8.38;;;;;;;;;;5039629;28;20044;-75
2022/11/20 02:03:12;;;;;;;9.75;7.82;;;;;;;;;;5022347;28;20049;-75
2022/11/20 02:05:38;;;;;;;11.35;8.60;;;;;;;;;;5022472;28;20151;-74
2022/11/20 02:08:05;;;;;;;13.20;8.55;;;;;;;;;;5042744;28;20123;-74
2022/11/20 02:10:32;;;;;;;10.85;7.95;;;;;;;;;;5025564;28;20048;-75
2022/11/20 02:15:43;;;;;;;11.38;8.05;;;;;;;;;;5036709;28;20056;-75
2022/11/20 02:18:10;;;;;;;10.63;7.88;;;;;;;;;;5025594;28;20102;-75
2022/11/20 02:20:36;;;;;;;10.77;7.93;;;;;;;;;;5058680;28;20044;-75
2022/11/20 02:23:11;;;;;;;10.07;6.95;;;;;;;;;;5054831;28;20052;-74
2022/11/20 02:25:39;;;;;;;10.13;7.70;;;;;;;;;;5023946;28;20037;-74
2022/11/20 02:28:05;;;;;;;9.88;7.38;;;;;;;;;;5060154;28;20045;-74
2022/11/20 02:30:31;;;;;;;11.35;8.07;;;;;;;;;;5022527;28;20052;-74
2022/11/20 02:32:58;;;;;;;11.73;8.80;;;;;;;;;;5026222;28;20548;-74
2022/11/20 02:35:24;;;;;;;11.93;8.40;;;;;;;;;;5022333;28;20080;-74
2022/11/20 02:37:54;;;;;;;12.27;9.00;;;;;;;;;;5027173;28;20053;-74
2022/11/20 02:40:20;;;;;;;12.10;8.70;;;;;;;;;;5045897;28;20508;-74
2022/11/20 02:42:46;;;;;;;11.23;8.25;;;;;;;;;;5057547;28;20049;-74
2022/11/20 02:45:12;;;;;;;12.23;8.45;;;;;;;;;;5026141;28;20378;-74
2022/11/20 02:47:38;;;;;;;11.25;8.10;;;;;;;;;;5039453;28;20605;-73
2022/11/20 02:50:05;;;;;;;11.25;8.02;;;;;;;;;;5040127;28;20056;-74
2022/11/20 02:52:31;;;;;;;11.27;8.43;;;;;;;;;;5042034;28;20044;-74
2022/11/20 02:54:57;;;;;;;10.68;8.07;;;;;;;;;;5023932;28;20052;-74
2022/11/20 02:57:23;;;;;;;9.45;7.78;;;;;;;;;;5045329;28;20064;-74
2022/11/20 02:59:49;;;;;;;12.15;7.70;;;;;;;;;;5041010;28;20053;-74
2022/11/20 03:02:15;;;;;;;10.43;7.57;;;;;;;;;;5042160;28;20118;-74
2022/11/20 03:04:41;;;;;;;10.88;8.15;;;;;;;;;;5041789;28;20049;-74
2022/11/20 03:07:08;;;;;;;11.63;8.52;;;;;;;;;;5022063;28;20080;-75
2022/11/20 03:09:34;;;;;;;10.55;7.82;;;;;;;;;;5060052;28;20045;-75
2022/11/20 03:12:00;;;;;;;10.95;8.45;;;;;;;;;;5029143;28;20485;-74
2022/11/20 03:14:26;;;;;;;10.23;7.68;;;;;;;;;;5050303;28;20548;-74
2022/11/20 03:16:52;;;;;;;11.80;8.07;;;;;;;;;;5028086;28;20041;-74
2022/11/20 03:19:18;;;;;;;11.90;8.30;;;;;;;;;;5042270;28;20041;-74
2022/11/20 03:21:44;;;;;;;10.98;8.40;;;;;;;;;;5022863;28;20110;-74
2022/11/20 03:24:10;;;;;;;11.63;8.68;;;;;;;;;;5054187;28;20515;-74
2022/11/20 03:26:36;;;;;;;11.35;8.38;;;;;;;;;;5028483;28;20037;-74
2022/11/20 03:29:03;;;;;;;10.68;8.10;;;;;;;;;;5043957;28;20072;-74
2022/11/20 03:31:42;;;;;;;12.10;8.45;;;;;;;;;;5027328;28;20056;-74
2022/11/20 03:34:09;;;;;;;10.52;8.27;;;;;;;;;;5057040;28;20051;-74
2022/11/20 03:36:35;;;;;;;11.93;8.57;;;;;;;;;;5025500;28;20064;-74
2022/11/20 03:39:01;;;;;;;11.20;7.78;;;;;;;;;;5043623;28;20049;-75
2022/11/20 03:41:28;;;;;;;11.38;8.30;;;;;;;;;;5024320;28;20033;-75
2022/11/20 03:43:55;;;;;;;11.07;7.97;;;;;;;;;;5030930;28;20044;-74
2022/11/20 03:46:21;;;;;;;10.50;8.65;;;;;;;;;;5023957;28;20049;-74
2022/11/20 03:48:48;;;;;;;11.52;8.20;;;;;;;;;;5045892;28;20053;-74
2022/11/20 03:51:18;;;;;;;11.63;8.15;;;;;;;;;;5055543;28;20056;-74
2022/11/20 03:53:45;;;;;;;11.65;9.07;;;;;;;;;;5030479;28;20048;-74
2022/11/20 03:56:12;;;;;;;9.48;6.80;;;;;;;;;;5022562;28;20044;-74
2022/11/20 03:58:42;;;;;;;12.65;8.00;;;;;;;;;;5061894;28;20397;-74
2022/11/20 04:01:08;;;;;;;11.15;8.32;;;;;;;;;;5043591;28;20100;-74
2022/11/20 04:03:35;;;;;;;11.57;8.80;;;;;;;;;;5043503;28;20056;-74
2022/11/20 04:06:06;;;;;;;10.18;7.88;;;;;;;;;;5045921;28;20045;-74
2022/11/20 04:08:32;;;;;;;11.52;8.48;;;;;;;;;;5044019;28;20045;-75
2022/11/20 04:11:08;;;;;;;12.20;8.57;;;;;;;;;;5044692;28;20052;-74
2022/11/20 04:13:34;;;;;;;11.82;8.48;;;;;;;;;;5028904;28;20128;-74
2022/11/20 04:16:00;;;;;;;10.90;8.10;;;;;;;;;;5045612;28;20196;-74
2022/11/20 04:18:26;;;;;;;13.93;8.90;;;;;;;;;;5049268;28;20045;-74
2022/11/20 04:20:52;;;;;;;11.00;7.85;;;;;;;;;;5028531;28;20044;-74
2022/11/20 04:23:18;;;;;;;10.95;8.38;;;;;;;;;;5044578;28;20392;-75
2022/11/20 04:25:44;;;;;;;11.52;7.90;;;;;;;;;;5059220;28;20124;-75
2022/11/20 04:28:10;;;;;;;12.07;8.25;;;;;;;;;;5046123;28;20090;-74
2022/11/20 04:30:36;;;;;;;11.18;8.32;;;;;;;;;;5034638;28;20431;-74
2022/11/20 04:33:02;;;;;;;11.48;8.32;;;;;;;;;;5030557;28;20045;-74
2022/11/20 04:35:28;;;;;;;11.80;8.63;;;;;;;;;;5032081;28;20051;-74
2022/11/20 04:37:54;;;;;;;9.93;7.90;;;;;;;;;;5057973;28;20056;-75
2022/11/20 04:40:26;;;;;;;10.63;8.27;;;;;;;;;;5033703;28;20132;-75
2022/11/20 04:42:52;;;;;;;10.52;7.70;;;;;;;;;;5044468;28;20056;-75
2022/11/20 04:45:18;;;;;;;10.73;8.07;;;;;;;;;;5050501;28;20399;-75
2022/11/20 04:47:44;;;;;;;11.60;8.60;;;;;;;;;;5049468;28;20044;-74
2022/11/20 04:50:10;;;;;;;12.15;8.63;;;;;;;;;;5028673;28;20118;-74
2022/11/20 04:52:36;;;;;;;13.27;8.35;;;;;;;;;;5062507;28;20041;-74
2022/11/20 04:55:02;;;;;;;10.15;7.93;;;;;;;;;;5027746;28;20080;-75
2022/11/20 04:57:28;;;;;;;10.55;7.90;;;;;;;;;;5046084;28;20503;-74
2022/11/20 04:59:54;;;;;;;10.38;8.20;;;;;;;;;;5025605;28;20051;-75
2022/11/20 05:02:20;;;;;;;12.80;9.02;;;;;;;;;;5027050;28;20036;-74
2022/11/20 05:04:46;;;;;;;12.90;8.55;;;;;;;;;;5030769;28;20048;-74
2022/11/20 05:07:12;;;;;;;11.90;8.25;;;;;;;;;;5025452;28;20515;-75
2022/11/20 05:09:38;;;;;;;11.85;8.45;;;;;;;;;;5048134;28;21007;-75
2022/11/20 05:12:04;;;;;;;11.75;8.35;;;;;;;;;;5029248;28;20041;-74
2022/11/20 05:14:30;;;;;;;12.35;9.20;;;;;;;;;;5029201;28;20107;-74
2022/11/20 05:16:56;;;;;;;11.70;8.75;;;;;;;;;;5047466;28;20411;-74
2022/11/20 05:19:22;;;;;;;12.00;8.70;;;;;;;;;;5061221;28;20049;-75
2022/11/20 05:21:48;;;;;;;10.27;7.85;;;;;;;;;;5029327;28;20104;-75
2022/11/20 05:24:14;;;;;;;11.25;8.40;;;;;;;;;;5042321;28;20036;-75
2022/11/20 05:26:40;;;;;;;13.40;8.90;;;;;;;;;;5047601;28;20063;-75
2022/11/20 05:29:06;;;;;;;11.15;8.50;;;;;;;;;;5048358;28;20037;-74
2022/11/20 05:31:32;;;;;;;11.65;8.30;;;;;;;;;;5058675;28;20102;-74
2022/11/20 05:33:58;;;;;;;11.85;8.43;;;;;;;;;;5029992;28;20451;-74
2022/11/20 05:36:25;;;;;;;10.93;7.90;;;;;;;;;;5049253;28;20057;-74
2022/11/20 05:38:51;;;;;;;10.90;8.82;;;;;;;;;;5042365;28;20110;-74
2022/11/20 05:41:18;;;;;;;11.02;7.90;;;;;;;;;;5063151;28;20083;-75
2022/11/20 05:43:45;;;;;;;13.73;8.35;;;;;;;;;;5056055;28;20100;-75
2022/11/20 05:46:12;;;;;;;12.80;9.02;;;;;;;;;;5024172;28;20346;-74
2022/11/20 05:48:41;;;;;;;11.45;8.27;;;;;;;;;;5027937;28;20085;-74
2022/11/20 05:51:08;;;;;;;11.52;8.23;;;;;;;;;;5046015;28;20481;-74
2022/11/20 05:53:35;;;;;;;11.93;8.77;;;;;;;;;;5046047;28;20056;-74
2022/11/20 05:56:01;;;;;;;12.20;8.55;;;;;;;;;;5029380;28;20037;-74
2022/11/20 05:58:28;;;;;;;12.48;8.43;;;;;;;;;;5027353;28;20049;-75
2022/11/20 06:00:54;;;;;;;13.00;8.45;;;;;;;;;;5026002;28;20049;-74
2022/11/20 06:03:21;;;;;;;11.98;8.68;;;;;;;;;;5027457;28;20400;-75
2022/11/20 06:05:47;;;;;;;12.90;9.48;;;;;;;;;;5058677;28;20075;-74
2022/11/20 06:08:13;;;;;;;11.77;8.85;;;;;;;;;;5026854;28;20610;-73
2022/11/20 06:10:39;;;;;;;12.18;8.82;;;;;;;;;;5030461;28;20052;-74
2022/11/20 06:13:05;;;;;;;13.80;9.07;;;;;;;;;;5042692;28;20040;-74
2022/11/20 06:15:31;;;;;;;12.50;9.02;;;;;;;;;;5030531;28;20489;-75
2022/11/20 06:17:58;;;;;;;12.57;8.35;;;;;;;;;;5059754;28;20073;-74
2022/11/20 06:20:24;;;;;;;10.63;8.45;;;;;;;;;;5047007;28;20221;-74
2022/11/20 06:22:50;;;;;;;11.98;8.52;;;;;;;;;;5025730;28;20504;-74
2022/11/20 06:25:16;;;;;;;13.65;9.32;;;;;;;;;;5023031;28;20049;-74
2022/11/20 06:27:42;;;;;;;12.98;9.38;;;;;;;;;;5027784;28;20091;-74
2022/11/20 06:30:09;;;;;;;11.32;8.35;;;;;;;;;;5020577;28;20040;-74
2022/11/20 06:32:35;;;;;;;11.02;8.80;;;;;;;;;;5029258;28;20041;-74
2022/11/20 06:35:01;;;;;;;12.63;9.45;;;;;;;;;;5045651;28;20047;-74
2022/11/20 06:37:27;;;;;;;12.23;8.75;;;;;;;;;;5044803;28;20061;-74
2022/11/20 06:39:55;;;;;;;11.00;8.80;;;;;;;;;;5056708;28;20397;-73
2022/11/20 06:42:21;;;;;;;12.43;8.57;;;;;;;;;;5024225;28;20051;-74
2022/11/20 06:44:48;;;;;;;11.27;8.85;;;;;;;;;;5047881;28;20045;-74
2022/11/20 06:47:13;;;;;;;11.90;9.38;;;;;;;;;;5026539;28;20053;-74
2022/11/20 06:49:40;;;;;;;11.98;9.10;;;;;;;;;;5029218;28;20048;-74
2022/11/20 06:52:06;;;;;;;12.45;8.65;;;;;;;;;;5027243;28;20032;-74
2022/11/20 06:54:32;;;;;;;11.25;9.15;;;;;;;;;;5045850;28;20128;-74
2022/11/20 06:56:58;;;;;;;14.35;9.55;;;;;;;;;;5046759;28;20120;-74
2022/11/20 06:59:24;;;;;;;12.25;9.15;;;;;;;;;;5039907;28;20485;-74
2022/11/20 07:01:50;;;;;;;13.23;9.57;;;;;;;;;;5026267;28;20098;-74
2022/11/20 07:04:16;;;;;;;12.38;9.98;;;;;;;;;;5044795;28;20388;-74
2022/11/20 07:06:42;;;;;;;13.48;9.65;;;;;;;;;;5047468;28;20045;-74
2022/11/20 07:09:08;;;;;;;11.90;8.75;;;;;;;;;;5043971;28;20481;-74
2022/11/20 07:11:34;;;;;;;13.10;9.38;;;;;;;;;;5039712;28;20052;-74
2022/11/20 07:14:00;;;;;;;13.80;9.25;;;;;;;;;;5044660;28;20044;-74
2022/11/20 07:16:26;;;;;;;12.57;8.75;;;;;;;;;;5043427;28;20524;-74
2022/11/20 07:18:52;;;;;;;12.57;8.80;;;;;;;;;;5047636;28;20060;-74
2022/11/20 07:21:18;;;;;;;12.00;8.75;;;;;;;;;;5043528;28;20427;-74
2022/11/20 07:23:44;;;;;;;12.43;8.88;;;;;;;;;;5028710;28;20045;-74
2022/11/20 07:26:11;;;;;;;12.80;9.07;;;;;;;;;;5025463;28;20393;-75
2022/11/20 07:28:37;;;;;;;10.35;8.18;;;;;;;;;;5045222;28;20041;-74
2022/11/20 07:31:04;;;;;;;11.35;8.80;;;;;;;;;;5029929;28;20442;-74
2022/11/20 07:33:30;;;;;;;14.05;9.15;;;;;;;;;;5026194;28;20497;-74
2022/11/20 07:36:00;;;;;;;12.88;9.13;;;;;;;;;;5021483;28;20497;-74
2022/11/20 07:38:26;;;;;;;13.07;9.68;;;;;;;;;;5021320;28;21697;-74
2022/11/20 07:40:56;;;;;;;11.43;8.73;;;;;;;;;;5020128;28;20045;-74
2022/11/20 07:43:22;;;;;;;12.55;9.38;;;;;;;;;;5025078;28;20090;-75
2022/11/20 07:45:48;;;;;;;13.73;9.65;;;;;;;;;;5053427;28;20052;-75
2022/11/20 07:48:14;;;;;;;12.57;8.80;;;;;;;;;;5044365;28;20484;-74
2022/11/20 07:50:40;;;;;;;12.48;9.40;;;;;;;;;;5039572;28;20124;-74
2022/11/20 07:53:06;;;;;;;11.70;9.13;;;;;;;;;;5040822;28;20550;-74
2022/11/20 07:55:33;;;;;;;12.70;9.50;;;;;;;;;;5040769;28;20067;-74
2022/11/20 07:57:59;;;;;;;11.30;9.32;;;;;;;;;;5056022;28;20051;-74
2022/11/20 08:00:26;;;;;;;12.05;8.80;;;;;;;;;;5022261;28;20040;-74
2022/11/20 08:02:52;;;;;;;13.13;8.85;;;;;;;;;;5040613;28;20106;-74
2022/11/20 08:05:18;;;;;;;13.05;8.90;;;;;;;;;;5023676;28;20079;-74
2022/11/20 08:07:44;;;;;;;12.38;8.65;;;;;;;;;;5028343;28;20443;-74
2022/11/20 08:10:12;;;;;;;12.10;9.07;;;;;;;;;;5026246;28;20131;-74
2022/11/20 08:15:29;;;;;;;12.73;8.68;;;;;;;;;;5045950;28;20504;-74
2022/11/20 08:18:05;;;;;;;11.80;8.45;;;;;;;;;;5061987;28;20138;-75
2022/11/20 08:20:31;;;;;;;10.93;7.85;;;;;;;;;;5048525;28;20048;-74
2022/11/20 08:23:01;;;;;;;12.93;9.00;;;;;;;;;;5051392;28;20171;-75
2022/11/20 08:25:28;;;;;;;11.50;8.65;;;;;;;;;;5026425;28;20072;-75
2022/11/20 08:27:54;;;;;;;12.73;8.95;;;;;;;;;;5063755;28;20816;-74
2022/11/20 08:30:20;;;;;;;11.68;8.45;;;;;;;;;;5026954;28;20047;-75
2022/11/20 08:32:46;;;;;;;13.75;9.32;;;;;;;;;;5051158;28;20041;-74
2022/11/20 08:35:12;;;;;;;12.02;9.05;;;;;;;;;;5027057;28;20132;-74
2022/11/20 08:37:41;;;;;;;12.40;9.27;;;;;;;;;;5027256;28;20072;-74
2022/11/20 08:40:08;;;;;;;12.85;9.00;;;;;;;;;;5027737;28;20400;-75
2022/11/20 08:42:34;;;;;;;11.45;9.40;;;;;;;;;;5043955;28;20386;-75
2022/11/20 08:45:02;;;;;;;14.68;9.57;;;;;;;;;;5044369;28;20097;-74
2022/11/20 08:47:29;;;;;;;11.80;8.95;;;;;;;;;;5033144;28;20044;-75
2022/11/20 08:49:55;;;;;;;13.52;9.57;;;;;;;;;;5030224;28;20048;-74
2022/11/20 08:52:21;;;;;;;14.90;9.85;;;;;;;;;;5045273;28;20040;-75
2022/11/20 08:54:47;;;;;;;11.95;9.65;;;;;;;;;;5037073;28;20500;-75
2022/11/20 08:57:13;;;;;;;13.15;9.48;;;;;;;;;;5031256;28;20041;-74
2022/11/20 08:59:39;;;;;;;13.00;9.32;;;0.40;99.90;;;;;;5026414;28;20497;-75
2022/11/20 09:02:04;;;;;;;14.10;9.77;;;1.30;99.90;;;;;;5059775;28;20472;-74
2022/11/20 09:04:30;;;;;;;12.25;9.45;;;1.30;99.90;;;;;;5026569;28;20186;-75
2022/11/20 09:06:56;;;;;;;16.35;9.60;;;1.30;99.90;;;;;;5045897;28;20116;-75
2022/11/20 09:09:21;;;;;;;14.55;9.90;;;1.50;99.90;;;;;;5029613;28;20044;-75
2022/11/20 09:11:47;;;;;;;30.40;21.15;;;1.50;99.90;;;;;;5026746;28;20114;-74
2022/11/20 09:14:13;;;;;;;20.10;13.93;;;1.60;99.90;;;;;;5059339;28;20560;-75
2022/11/20 09:16:38;;;;;;;15.07;11.05;;;1.60;99.90;;;;;;5041059;28;20052;-74
2022/11/20 09:19:04;;;;;;;13.50;9.98;;;1.60;99.90;;;;;;5026488;28;20492;-75
2022/11/20 09:21:29;;;;;;;14.15;10.20;;;1.60;99.90;;;;;;5048845;28;20075;-75
2022/11/20 09:23:55;;;;;;;12.50;9.70;;;1.70;99.90;;;;;;5048005;28;20041;-76
2022/11/20 09:26:20;;;;;;;12.50;9.95;;;1.70;99.90;;;;;;5031481;28;20053;-77
2022/11/20 09:28:46;;;;;;;13.75;10.05;;;1.80;99.90;;;;;;5062775;28;20048;-76
2022/11/20 09:31:22;;;;;;;11.25;9.13;;;;;;;;;;5053333;28;20049;-80
2022/11/20 09:33:48;;;;;;;13.32;9.95;;;;;;;;;;5036152;28;20128;-77
2022/11/20 09:36:15;;;;;;;12.93;9.23;;;;;;;;;;5032881;28;20136;-79
2022/11/20 09:38:42;;;;;;;13.52;10.07;;;;;;;;;;5048601;28;20045;-74
2022/11/20 09:41:19;;;;;;;12.00;9.75;;;;;;;;;;5043600;28;20056;-72
2022/11/20 09:44:04;;;;;;;12.13;9.60;;;;;;;;;;5054167;28;20049;-77
2022/11/20 09:46:35;;;;;;;12.00;9.35;;;;;;;;;;5044447;28;20049;-77
2022/11/20 09:49:20;;;;;;;13.48;9.82;;;;;;;;;;5031431;28;20052;-75
2022/11/20 09:52:11;;;;;;;12.02;9.18;;;;;;;;;;5030146;28;20056;-76
2022/11/20 09:54:39;;;;;;;12.43;9.10;;;;;;;;;;5051329;28;20037;-75
2022/11/20 09:57:16;;;;;;;12.48;9.05;;;1.90;99.90;;;;;;5029561;28;20128;-75
2022/11/20 09:59:46;;;;;;;14.05;10.00;;;2.60;99.90;;;;;;5015339;28;21579;-74
2022/11/20 10:02:45;;;;;;;12.80;10.07;;;2.60;99.90;;;;;;5076202;28;20048;-74
2022/11/20 10:05:27;;;;;;;17.25;12.52;;;2.70;99.90;;;;;;5041277;28;20064;-75
2022/11/20 10:07:56;;;;;;;12.25;9.50;;;2.70;99.90;;;;;;5055996;28;20052;-75
2022/11/20 10:10:55;;;;;;;11.85;9.55;;;2.70;99.90;;;;;;5063245;28;20404;-75
2022/11/20 10:13:21;;;;;;;13.65;9.27;;;2.80;99.90;;;;;;5067045;28;20041;-74
2022/11/20 10:16:08;;;;;;;12.20;9.25;;;2.80;99.90;;;;;;5063172;28;20056;-76
2022/11/20 10:18:36;;;;;;;12.88;9.35;;;2.90;99.90;;;;;;5065024;28;20048;-76
2022/11/20 10:21:28;;;;;;;12.52;9.43;;;3.00;99.90;;;;;;5046033;28;20045;-75
2022/11/20 10:24:24;;;;;;;11.43;9.27;;;3.00;99.90;;;;;;5050561;28;20124;-76
2022/11/20 10:27:14;;;;;;;16.25;9.70;;;3.10;99.90;;;;;;5045295;28;20054;-76
2022/11/20 10:29:45;;;;;;;11.05;8.35;;;3.20;99.90;;;;;;5078499;28;20546;-72
2022/11/20 10:32:16;;;;;;;11.52;8.73;;;3.30;99.90;;;;;;5064871;28;20122;-73
2022/11/20 10:34:54;;;;;;;10.88;8.60;;;3.30;99.90;;;;;;5038728;28;20175;-73
2022/11/20 10:37:25;;;;;;;10.82;8.13;;;;;;;;;;5059673;28;20127;-73
2022/11/20 10:39:56;;;;;;;9.93;7.70;;;3.50;99.90;;;;;;5063482;28;20045;-73
2022/11/20 10:42:31;;;;;;;11.70;8.25;;;;;;;;;;5041083;28;20458;-75
2022/11/20 10:45:29;;;;;;;12.20;8.90;;;3.50;99.90;;;;;;5067574;28;20052;-75
2022/11/20 10:48:07;;;;;;;11.60;8.43;;;3.60;99.90;;;;;;5057928;28;20043;-75
2022/11/20 10:50:37;;;;;;;10.40;8.13;;;3.60;99.90;;;;;;5065130;28;20041;-74
2022/11/20 10:53:28;;;;;;;12.18;8.40;;;3.70;99.90;;;;;;5060189;28;20131;-74
2022/11/20 10:55:58;;;;;;;9.80;7.97;;;;;;;;;;5060073;28;20155;-73
2022/11/20 10:58:54;;;;;;;11.57;9.07;;;3.80;99.90;;;;;;5044991;28;20056;-73
2022/11/20 11:01:23;;;;;;;10.77;8.68;;;4.00;99.90;;;;;;5059281;28;20079;-74
2022/11/20 11:03:50;;;;;;;12.85;9.43;;;3.90;99.90;;;;;;5044129;28;20131;-73
2022/11/20 11:06:29;;;;;;;11.43;8.55;;;4.00;99.90;;;;;;5058441;28;20135;-72
2022/11/20 11:08:58;;;;;;;12.45;9.40;;;4.10;99.90;;;;;;5040777;28;20079;-72
2022/11/20 11:11:28;;;;;;;12.70;9.82;;;4.20;99.90;;;;;;5062264;28;20522;-72
2022/11/20 11:14:08;;;;;;;12.60;9.88;;;4.20;99.90;;;;;;5067134;28;20079;-72
2022/11/20 11:16:33;;;;;;;12.02;9.40;;;4.10;99.90;;;;;;5050954;28;20049;-73
2022/11/20 11:19:06;;;;;;;11.85;9.48;;;4.20;99.90;;;;;;5066060;28;20380;-72
2022/11/20 11:21:32;;;;;;;13.55;10.13;;;4.30;99.90;;;;;;5078680;28;20046;-72
2022/11/20 11:24:03;;;;;;;11.68;9.15;;;;;;;;;;5065141;28;20396;-73
2022/11/20 11:26:32;;;;;;;13.00;10.18;;;;;;;;;;5044661;28;20056;-73
2022/11/20 11:29:03;;;;;;;13.20;10.30;;;;;;;;;;5061673;28;20037;-72
2022/11/20 11:31:33;;;;;;;13.82;9.80;;;;;;;;;;5059143;28;20433;-73
2022/11/20 11:34:06;;;;;;;12.75;9.73;;;;;;;;;;5080207;28;20040;-72
2022/11/20 11:36:33;;;;;;;13.48;9.68;;;;;;;;;;5063731;28;20052;-72
2022/11/20 11:38:59;;;;;;;13.65;10.10;;;;;;;;;;5044015;28;20097;-73
2022/11/20 11:41:31;;;;;;;12.13;8.90;;;;;;;;;;5041436;28;20258;-72
2022/11/20 11:46:56;;;;;;;13.25;10.05;;;;;;;;;;5066955;28;20048;-73
2022/11/20 11:49:22;;;;;;;12.05;9.23;;;;;;;;;;5067083;28;20151;-72
2022/11/20 11:51:57;;;;;;;11.90;9.98;;;;;;;;;;5049527;28;20483;-72
2022/11/20 11:54:25;;;;;;;14.80;10.77;;;;;;;;;;5057742;28;20440;-73
2022/11/20 11:56:52;;;;;;;12.60;9.82;;;4.30;99.90;;;;;;5067311;28;20041;-73
2022/11/20 11:59:34;;;;;;;14.05;10.00;;;4.30;99.90;;;;;;5049239;28;20127;-73
2022/11/20 12:02:03;;;;;;;13.80;10.13;;;4.30;99.90;;;;;;5064763;28;20037;-73
2022/11/20 12:04:49;;;;;;;14.43;10.77;;;;;;;;;;5063940;28;22183;-73
2022/11/20 12:07:34;;;;;;;12.40;9.23;;;;;;;;;;5069969;28;20044;-73
2022/11/20 12:10:00;;;;;;;12.25;9.30;;;;;;;;;;5046341;28;20049;-73
2022/11/20 12:12:30;;;;;;;13.50;10.25;;;;;;;;;;5064528;28;20730;-73
2022/11/20 12:14:57;;;;;;;11.48;8.80;;;;;;;;;;5045864;28;20052;-73
2022/11/20 12:17:24;;;;;;;12.73;10.05;;;;;;;;;;5059193;28;20044;-73
2022/11/20 12:19:50;;;;;;;13.00;9.45;;;;;;;;;;5067047;28;20036;-73
2022/11/20 12:22:32;;;;;;;11.45;9.15;;;;;;;;;;5066929;28;20047;-73
2022/11/20 12:25:08;;;;;;;12.43;9.20;;;;;;;;;;5065073;28;20037;-73
2022/11/20 12:27:53;;;;;;;11.48;9.40;;;;;;;;;;5053317;28;20313;-73
2022/11/20 12:30:20;;;;;;;13.15;9.48;;;;;;;;;;5064973;28;20071;-72
2022/11/20 12:32:52;;;;;;;11.73;9.25;;;;;;;;;;5085142;28;20048;-73
2022/11/20 12:35:18;;;;;;;12.68;9.52;;;;;;;;;;5079588;28;20040;-74
2022/11/20 12:37:52;;;;;;;10.38;8.85;;;;;;;;;;5077626;28;20064;-73
2022/11/20 12:40:33;;;;;;;11.10;8.88;;;;;;;;;;5057958;28;20059;-73
2022/11/20 12:45:57;;;;;;;11.73;8.98;;;;;;;;;;5054706;28;20044;-78
2022/11/20 12:48:29;;;;;;;10.80;8.60;;;;;;;;;;5078398;28;20070;-73
2022/11/20 12:51:07;;;;;;;10.13;8.23;;;;;;;;;;5048357;28;20088;-73
2022/11/20 12:53:45;;;;;;;10.02;8.55;;;;;;;;;;5051366;28;20455;-73
2022/11/20 12:56:30;;;;;;;10.70;8.90;;;;;;;;;;5065943;28;20087;-73
2022/11/20 12:59:06;;;;;;;11.05;8.82;;;;;;;;;;5083342;28;20044;-73
2022/11/20 13:01:43;;;;;;;11.15;9.00;;;4.40;99.90;;;;;;5076541;28;20109;-74
2022/11/20 13:04:27;;;;;;;12.68;9.27;;;4.00;99.90;;;;;;5081679;28;20127;-72
2022/11/20 13:06:54;;;;;;;12.20;9.20;;;4.00;99.90;;;;;;5046085;28;20080;-72
2022/11/20 13:09:22;;;;;;;10.10;8.55;;;3.90;99.90;;;;;;5069758;28;20050;-72
2022/11/20 13:11:51;;;;;;;12.30;8.55;;;;;;;;;;5069866;28;20044;-73
2022/11/20 13:14:29;;;;;;;11.52;8.63;;;;;;;;;;5047023;28;20374;-72
2022/11/20 13:16:55;;;;;;;12.25;9.05;;;;;;;;;;5044793;28;20057;-72
2022/11/20 13:19:22;;;;;;;10.65;8.43;;;;;;;;;;5064910;28;20033;-72
2022/11/20 13:21:50;;;;;;;10.77;8.80;;;;;;;;;;5072794;28;20075;-72
2022/11/20 13:24:29;;;;;;;11.68;9.35;;;;;;;;;;5046039;28;20463;-70
2022/11/20 13:27:03;;;;;;;12.68;9.40;;;;;;;;;;5046884;28;20048;-71
2022/11/20 13:29:29;;;;;;;11.82;9.25;;;;;;;;;;5068423;28;20091;-71
2022/11/20 13:32:06;;;;;;;11.02;8.38;;;;;;;;;;5059538;28;20059;-71
2022/11/20 13:34:33;;;;;;;10.13;8.38;;;;;;;;;;5064455;28;20115;-71
2022/11/20 13:37:00;;;;;;;10.73;8.50;;;;;;;;;;5064779;28;20098;-72
2022/11/20 13:39:34;;;;;;;12.32;9.18;;;;;;;;;;5068070;28;20051;-73
2022/11/20 13:42:00;;;;;;;;;;;;;;;;;;5049311;28;20036;-72
2022/11/20 13:44:38;;;;;;;11.90;8.98;;;;;;;;;;5047246;28;20686;-72
2022/11/20 13:47:04;;;;;;;10.35;8.38;;;;;;;;;;5061956;28;20036;-72
2022/11/20 13:49:35;;;;;;;10.90;8.55;;;;;;;;;;5046100;28;20791;-72
2022/11/20 13:52:19;;;;;;;11.02;8.15;;;;;;;;;;5068525;28;20053;-72
2022/11/20 13:54:51;;;;;;;11.35;8.82;;;;;;;;;;5077459;28;20074;-72
2022/11/20 13:57:36;;;;;;;12.02;9.27;;;;;;;;;;5067214;28;20043;-72
2022/11/20 14:00:11;;;;;;;11.57;8.70;;;;;;;;;;5079328;28;20388;-72
2022/11/20 14:02:37;;;;;;;11.73;8.80;;;;;;;;;;5052548;28;20044;-72
2022/11/20 14:05:04;;;;;;;10.43;8.48;;;;;;;;;;5045606;28;20055;-72
2022/11/20 14:07:38;;;;;;;11.52;9.10;;;;;;;;;;5046152;28;20049;-72
2022/11/20 14:10:05;;;;;;;11.80;9.15;;;;;;;;;;5081524;28;20079;-73
2022/11/20 14:12:32;;;;;;;11.32;9.02;;;;;;;;;;5079059;28;20041;-73
2022/11/20 14:14:58;;;;;;;11.63;9.27;;;;;;;;;;5050900;28;20064;-73
2022/11/20 14:17:25;;;;;;;12.13;9.88;;;;;;;;;;5046205;28;20095;-73
2022/11/20 14:19:52;;;;;;;11.93;10.00;;;;;;;;;;5043648;28;20135;-73
2022/11/20 14:22:21;;;;;;;13.98;10.32;;;;;;;;;;5078188;28;20442;-73
2022/11/20 14:25:02;;;;;;;12.82;10.40;;;;;;;;;;5063108;28;20044;-73
2022/11/20 14:27:28;;;;;;;12.50;10.27;;;;;;;;;;5042424;28;20100;-73
2022/11/20 14:29:55;;;;;;;13.48;10.88;;;;;;;;;;5047584;28;20036;-73
2022/11/20 14:32:25;;;;;;;12.82;10.35;;;;;;;;;;5044756;28;20049;-73
2022/11/20 14:34:51;;;;;;;14.38;10.20;;;;;;;;;;5077938;28;20144;-74